sensor_id;sensor_type;location;lat;lon;timestamp;P1;durP1;ratioP1;P2;durP2;ratioP2
77061;SDS011;65989;51.686;5.138;2023-03-13T00:01:53;23.47;;;3.97;;
77061;SDS011;65989;51.686;5.138;2023-03-13T00:04:19;26.93;;;4.53;;
77061;SDS011;65989;51.686;5.138;2023-03-13T00:06:44;20.90;;;4.03;;
77061;SDS011;65989;51.686;5.138;2023-03-13T00:09:10;24.08;;;4.68;;
77061;SDS011;65989;51.686;5.138;2023-03-13T00:11:37;26.15;;;5.03;;
77061;SDS011;65989;51.686;5.138;2023-03-13T00:14:03;23.47;;;4.40;;
77061;SDS011;65989;51.686;5.138;2023-03-13T00:16:30;26.17;;;5.38;;
77061;SDS011;65989;51.686;5.138;2023-03-13T00:18:58;21.58;;;4.38;;
77061;SDS011;65989;51.686;5.138;2023-03-13T00:21:26;20.30;;;4.60;;
77061;SDS011;65989;51.686;5.138;2023-03-13T00:23:52;24.10;;;4.35;;
77061;SDS011;65989;51.686;5.138;2023-03-13T00:26:19;25.85;;;4.63;;
77061;SDS011;65989;51.686;5.138;2023-03-13T00:28:46;29.60;;;4.97;;
77061;SDS011;65989;51.686;5.138;2023-03-13T00:31:17;22.92;;;4.22;;
77061;SDS011;65989;51.686;5.138;2023-03-13T00:33:51;28.77;;;5.05;;
77061;SDS011;65989;51.686;5.138;2023-03-13T00:36:22;28.73;;;4.72;;
77061;SDS011;65989;51.686;5.138;2023-03-13T00:38:49;23.35;;;4.32;;
77061;SDS011;65989;51.686;5.138;2023-03-13T00:41:34;18.77;;;4.53;;
77061;SDS011;65989;51.686;5.138;2023-03-13T00:44:00;22.90;;;5.55;;
77061;SDS011;65989;51.686;5.138;2023-03-13T00:46:27;21.13;;;4.40;;
77061;SDS011;65989;51.686;5.138;2023-03-13T00:48:54;25.73;;;4.82;;
77061;SDS011;65989;51.686;5.138;2023-03-13T00:51:20;21.58;;;4.88;;
77061;SDS011;65989;51.686;5.138;2023-03-13T00:53:47;25.83;;;5.10;;
77061;SDS011;65989;51.686;5.138;2023-03-13T00:56:14;28.33;;;4.93;;
77061;SDS011;65989;51.686;5.138;2023-03-13T00:58:42;27.48;;;4.53;;
77061;SDS011;65989;51.686;5.138;2023-03-13T01:01:12;20.42;;;4.43;;
77061;SDS011;65989;51.686;5.138;2023-03-13T01:03:43;24.80;;;4.53;;
77061;SDS011;65989;51.686;5.138;2023-03-13T01:06:12;21.50;;;4.93;;
77061;SDS011;65989;51.686;5.138;2023-03-13T01:08:40;24.13;;;4.63;;
77061;SDS011;65989;51.686;5.138;2023-03-13T01:11:10;24.33;;;4.95;;
77061;SDS011;65989;51.686;5.138;2023-03-13T01:13:41;21.27;;;4.97;;
77061;SDS011;65989;51.686;5.138;2023-03-13T01:16:07;19.53;;;5.03;;
77061;SDS011;65989;51.686;5.138;2023-03-13T01:18:38;19.42;;;5.00;;
77061;SDS011;65989;51.686;5.138;2023-03-13T01:21:05;19.77;;;5.13;;
77061;SDS011;65989;51.686;5.138;2023-03-13T01:23:31;15.20;;;5.22;;
77061;SDS011;65989;51.686;5.138;2023-03-13T01:25:57;14.83;;;5.13;;
77061;SDS011;65989;51.686;5.138;2023-03-13T01:28:23;24.35;;;5.43;;
77061;SDS011;65989;51.686;5.138;2023-03-13T01:30:50;18.58;;;5.38;;
77061;SDS011;65989;51.686;5.138;2023-03-13T01:33:15;19.10;;;5.77;;
77061;SDS011;65989;51.686;5.138;2023-03-13T01:35:41;18.85;;;5.88;;
77061;SDS011;65989;51.686;5.138;2023-03-13T01:38:07;17.03;;;5.97;;
77061;SDS011;65989;51.686;5.138;2023-03-13T01:40:40;21.65;;;6.05;;
77061;SDS011;65989;51.686;5.138;2023-03-13T01:43:23;17.73;;;6.15;;
77061;SDS011;65989;51.686;5.138;2023-03-13T01:45:52;15.13;;;5.50;;
77061;SDS011;65989;51.686;5.138;2023-03-13T01:48:19;16.17;;;6.60;;
77061;SDS011;65989;51.686;5.138;2023-03-13T01:50:50;16.20;;;6.45;;
77061;SDS011;65989;51.686;5.138;2023-03-13T01:53:17;17.25;;;6.63;;
77061;SDS011;65989;51.686;5.138;2023-03-13T01:55:43;17.70;;;6.57;;
77061;SDS011;65989;51.686;5.138;2023-03-13T01:58:08;14.73;;;6.45;;
77061;SDS011;65989;51.686;5.138;2023-03-13T02:00:34;15.87;;;6.20;;
77061;SDS011;65989;51.686;5.138;2023-03-13T02:03:03;19.80;;;7.50;;
77061;SDS011;65989;51.686;5.138;2023-03-13T02:05:34;18.27;;;6.40;;
77061;SDS011;65989;51.686;5.138;2023-03-13T02:10:26;21.07;;;7.10;;
77061;SDS011;65989;51.686;5.138;2023-03-13T02:12:55;18.33;;;7.47;;
77061;SDS011;65989;51.686;5.138;2023-03-13T02:15:22;16.70;;;7.32;;
77061;SDS011;65989;51.686;5.138;2023-03-13T02:17:49;12.35;;;6.78;;
77061;SDS011;65989;51.686;5.138;2023-03-13T02:20:16;15.90;;;7.38;;
77061;SDS011;65989;51.686;5.138;2023-03-13T02:28:26;20.88;;;7.80;;
77061;SDS011;65989;51.686;5.138;2023-03-13T02:30:57;19.55;;;8.70;;
77061;SDS011;65989;51.686;5.138;2023-03-13T02:33:25;18.40;;;7.93;;
77061;SDS011;65989;51.686;5.138;2023-03-13T02:35:53;22.75;;;8.85;;
77061;SDS011;65989;51.686;5.138;2023-03-13T02:38:20;16.27;;;8.27;;
77061;SDS011;65989;51.686;5.138;2023-03-13T02:40:49;20.20;;;8.43;;
77061;SDS011;65989;51.686;5.138;2023-03-13T02:43:17;23.48;;;9.40;;
77061;SDS011;65989;51.686;5.138;2023-03-13T02:45:59;16.83;;;8.25;;
77061;SDS011;65989;51.686;5.138;2023-03-13T02:48:33;20.67;;;9.20;;
77061;SDS011;65989;51.686;5.138;2023-03-13T02:51:02;16.43;;;7.40;;
77061;SDS011;65989;51.686;5.138;2023-03-13T02:53:30;17.88;;;7.90;;
77061;SDS011;65989;51.686;5.138;2023-03-13T02:55:58;16.75;;;7.82;;
77061;SDS011;65989;51.686;5.138;2023-03-13T02:58:24;16.67;;;7.70;;
77061;SDS011;65989;51.686;5.138;2023-03-13T03:00:50;17.75;;;7.53;;
77061;SDS011;65989;51.686;5.138;2023-03-13T03:03:16;14.40;;;7.60;;
77061;SDS011;65989;51.686;5.138;2023-03-13T03:05:41;16.83;;;7.87;;
77061;SDS011;65989;51.686;5.138;2023-03-13T03:08:06;17.17;;;7.77;;
77061;SDS011;65989;51.686;5.138;2023-03-13T03:10:34;15.47;;;7.63;;
77061;SDS011;65989;51.686;5.138;2023-03-13T03:13:00;13.82;;;7.53;;
77061;SDS011;65989;51.686;5.138;2023-03-13T03:15:26;19.13;;;8.20;;
77061;SDS011;65989;51.686;5.138;2023-03-13T03:17:51;17.70;;;7.17;;
77061;SDS011;65989;51.686;5.138;2023-03-13T03:20:16;13.93;;;6.95;;
77061;SDS011;65989;51.686;5.138;2023-03-13T03:22:42;19.00;;;7.83;;
77061;SDS011;65989;51.686;5.138;2023-03-13T03:25:07;16.40;;;7.70;;
77061;SDS011;65989;51.686;5.138;2023-03-13T03:27:33;13.35;;;7.68;;
77061;SDS011;65989;51.686;5.138;2023-03-13T03:30:00;14.30;;;7.78;;
77061;SDS011;65989;51.686;5.138;2023-03-13T03:32:26;14.60;;;7.67;;
77061;SDS011;65989;51.686;5.138;2023-03-13T03:34:51;17.20;;;8.40;;
77061;SDS011;65989;51.686;5.138;2023-03-13T03:37:16;14.63;;;8.03;;
77061;SDS011;65989;51.686;5.138;2023-03-13T03:39:42;14.23;;;8.20;;
77061;SDS011;65989;51.686;5.138;2023-03-13T03:42:08;17.63;;;8.13;;
77061;SDS011;65989;51.686;5.138;2023-03-13T03:44:33;16.17;;;8.20;;
77061;SDS011;65989;51.686;5.138;2023-03-13T03:46:59;14.53;;;8.73;;
77061;SDS011;65989;51.686;5.138;2023-03-13T03:49:24;14.60;;;7.60;;
77061;SDS011;65989;51.686;5.138;2023-03-13T03:51:49;20.77;;;9.33;;
77061;SDS011;65989;51.686;5.138;2023-03-13T03:54:15;16.67;;;8.40;;
77061;SDS011;65989;51.686;5.138;2023-03-13T03:56:40;17.50;;;7.63;;
77061;SDS011;65989;51.686;5.138;2023-03-13T03:59:05;17.50;;;8.40;;
77061;SDS011;65989;51.686;5.138;2023-03-13T04:01:31;18.80;;;9.73;;
77061;SDS011;65989;51.686;5.138;2023-03-13T04:03:56;15.67;;;9.50;;
77061;SDS011;65989;51.686;5.138;2023-03-13T04:06:21;15.43;;;9.33;;
77061;SDS011;65989;51.686;5.138;2023-03-13T04:08:47;15.97;;;9.60;;
77061;SDS011;65989;51.686;5.138;2023-03-13T04:11:12;14.90;;;8.70;;
77061;SDS011;65989;51.686;5.138;2023-03-13T04:13:37;17.40;;;8.83;;
77061;SDS011;65989;51.686;5.138;2023-03-13T04:16:06;13.70;;;8.50;;
77061;SDS011;65989;51.686;5.138;2023-03-13T04:18:33;16.42;;;8.48;;
77061;SDS011;65989;51.686;5.138;2023-03-13T04:21:02;15.70;;;8.83;;
77061;SDS011;65989;51.686;5.138;2023-03-13T04:23:29;18.92;;;8.45;;
77061;SDS011;65989;51.686;5.138;2023-03-13T04:25:54;14.17;;;8.63;;
77061;SDS011;65989;51.686;5.138;2023-03-13T04:28:19;18.57;;;8.40;;
77061;SDS011;65989;51.686;5.138;2023-03-13T04:30:45;15.03;;;8.00;;
77061;SDS011;65989;51.686;5.138;2023-03-13T04:33:10;16.07;;;8.17;;
77061;SDS011;65989;51.686;5.138;2023-03-13T04:35:35;14.38;;;7.60;;
77061;SDS011;65989;51.686;5.138;2023-03-13T04:38:01;15.43;;;7.93;;
77061;SDS011;65989;51.686;5.138;2023-03-13T04:40:27;17.37;;;7.90;;
77061;SDS011;65989;51.686;5.138;2023-03-13T04:42:52;14.82;;;7.65;;
77061;SDS011;65989;51.686;5.138;2023-03-13T04:45:18;16.37;;;7.03;;
77061;SDS011;65989;51.686;5.138;2023-03-13T04:47:44;13.37;;;6.87;;
77061;SDS011;65989;51.686;5.138;2023-03-13T04:50:11;13.35;;;6.53;;
77061;SDS011;65989;51.686;5.138;2023-03-13T04:52:36;13.80;;;7.47;;
77061;SDS011;65989;51.686;5.138;2023-03-13T04:55:01;13.43;;;6.50;;
77061;SDS011;65989;51.686;5.138;2023-03-13T04:57:27;10.90;;;6.33;;
77061;SDS011;65989;51.686;5.138;2023-03-13T04:59:53;17.60;;;6.27;;
77061;SDS011;65989;51.686;5.138;2023-03-13T05:02:18;12.27;;;6.07;;
77061;SDS011;65989;51.686;5.138;2023-03-13T05:04:43;10.40;;;6.15;;
77061;SDS011;65989;51.686;5.138;2023-03-13T05:07:09;15.33;;;5.97;;
77061;SDS011;65989;51.686;5.138;2023-03-13T05:09:34;12.63;;;6.07;;
77061;SDS011;65989;51.686;5.138;2023-03-13T05:11:59;13.90;;;6.37;;
77061;SDS011;65989;51.686;5.138;2023-03-13T05:14:25;16.37;;;6.90;;
77061;SDS011;65989;51.686;5.138;2023-03-13T05:16:50;13.30;;;6.60;;
77061;SDS011;65989;51.686;5.138;2023-03-13T05:19:15;14.00;;;6.80;;
77061;SDS011;65989;51.686;5.138;2023-03-13T05:21:41;9.63;;;5.90;;
77061;SDS011;65989;51.686;5.138;2023-03-13T05:24:06;11.87;;;5.63;;
77061;SDS011;65989;51.686;5.138;2023-03-13T05:26:32;11.10;;;5.57;;
77061;SDS011;65989;51.686;5.138;2023-03-13T05:28:57;14.07;;;5.80;;
77061;SDS011;65989;51.686;5.138;2023-03-13T05:31:22;10.83;;;5.23;;
77061;SDS011;65989;51.686;5.138;2023-03-13T05:33:48;13.77;;;5.77;;
77061;SDS011;65989;51.686;5.138;2023-03-13T05:36:13;18.03;;;5.97;;
77061;SDS011;65989;51.686;5.138;2023-03-13T05:38:39;11.97;;;5.40;;
77061;SDS011;65989;51.686;5.138;2023-03-13T05:41:04;11.20;;;5.10;;
77061;SDS011;65989;51.686;5.138;2023-03-13T05:43:29;11.90;;;5.00;;
77061;SDS011;65989;51.686;5.138;2023-03-13T05:45:55;9.57;;;5.23;;
77061;SDS011;65989;51.686;5.138;2023-03-13T05:48:20;11.80;;;5.20;;
77061;SDS011;65989;51.686;5.138;2023-03-13T05:50:45;12.80;;;4.90;;
77061;SDS011;65989;51.686;5.138;2023-03-13T05:53:11;11.93;;;4.97;;
77061;SDS011;65989;51.686;5.138;2023-03-13T05:55:36;12.57;;;5.20;;
77061;SDS011;65989;51.686;5.138;2023-03-13T05:58:02;11.67;;;4.83;;
77061;SDS011;65989;51.686;5.138;2023-03-13T06:00:27;11.80;;;5.37;;
77061;SDS011;65989;51.686;5.138;2023-03-13T06:02:53;13.90;;;5.50;;
77061;SDS011;65989;51.686;5.138;2023-03-13T06:05:18;12.40;;;4.90;;
77061;SDS011;65989;51.686;5.138;2023-03-13T06:07:43;10.63;;;5.00;;
77061;SDS011;65989;51.686;5.138;2023-03-13T06:10:09;12.73;;;5.20;;
77061;SDS011;65989;51.686;5.138;2023-03-13T06:12:35;17.30;;;4.80;;
77061;SDS011;65989;51.686;5.138;2023-03-13T06:15:00;13.53;;;4.87;;
77061;SDS011;65989;51.686;5.138;2023-03-13T06:17:26;11.33;;;4.37;;
77061;SDS011;65989;51.686;5.138;2023-03-13T06:19:51;16.48;;;4.55;;
77061;SDS011;65989;51.686;5.138;2023-03-13T06:22:17;10.70;;;4.27;;
77061;SDS011;65989;51.686;5.138;2023-03-13T06:24:42;10.17;;;4.53;;
77061;SDS011;65989;51.686;5.138;2023-03-13T06:27:13;11.95;;;4.07;;
77061;SDS011;65989;51.686;5.138;2023-03-13T06:29:39;13.23;;;4.25;;
77061;SDS011;65989;51.686;5.138;2023-03-13T06:32:04;10.27;;;4.17;;
77061;SDS011;65989;51.686;5.138;2023-03-13T06:34:30;11.13;;;4.40;;
77061;SDS011;65989;51.686;5.138;2023-03-13T06:36:55;15.30;;;4.30;;
77061;SDS011;65989;51.686;5.138;2023-03-13T06:39:22;16.33;;;4.30;;
77061;SDS011;65989;51.686;5.138;2023-03-13T06:41:48;13.53;;;4.50;;
77061;SDS011;65989;51.686;5.138;2023-03-13T06:44:13;12.73;;;4.27;;
77061;SDS011;65989;51.686;5.138;2023-03-13T06:46:38;9.80;;;4.03;;
77061;SDS011;65989;51.686;5.138;2023-03-13T06:49:04;14.20;;;4.07;;
77061;SDS011;65989;51.686;5.138;2023-03-13T06:51:30;12.90;;;4.45;;
77061;SDS011;65989;51.686;5.138;2023-03-13T06:53:55;11.43;;;4.10;;
77061;SDS011;65989;51.686;5.138;2023-03-13T06:56:21;13.23;;;4.38;;
77061;SDS011;65989;51.686;5.138;2023-03-13T06:58:49;12.47;;;4.17;;
77061;SDS011;65989;51.686;5.138;2023-03-13T07:01:15;25.42;;;4.53;;
77061;SDS011;65989;51.686;5.138;2023-03-13T07:03:41;14.97;;;4.37;;
77061;SDS011;65989;51.686;5.138;2023-03-13T07:06:08;15.77;;;4.10;;
77061;SDS011;65989;51.686;5.138;2023-03-13T07:08:35;10.65;;;4.07;;
77061;SDS011;65989;51.686;5.138;2023-03-13T07:11:02;17.05;;;4.20;;
77061;SDS011;65989;51.686;5.138;2023-03-13T07:13:29;13.15;;;4.28;;
77061;SDS011;65989;51.686;5.138;2023-03-13T07:15:55;11.77;;;3.97;;
77061;SDS011;65989;51.686;5.138;2023-03-13T07:18:24;14.68;;;4.03;;
77061;SDS011;65989;51.686;5.138;2023-03-13T07:20:53;15.03;;;4.37;;
77061;SDS011;65989;51.686;5.138;2023-03-13T07:23:22;9.93;;;3.63;;
77061;SDS011;65989;51.686;5.138;2023-03-13T07:25:53;14.07;;;3.70;;
77061;SDS011;65989;51.686;5.138;2023-03-13T07:28:26;10.00;;;3.92;;
77061;SDS011;65989;51.686;5.138;2023-03-13T07:30:53;7.85;;;3.50;;
77061;SDS011;65989;51.686;5.138;2023-03-13T07:33:18;11.17;;;3.53;;
77061;SDS011;65989;51.686;5.138;2023-03-13T07:35:50;14.25;;;4.00;;
77061;SDS011;65989;51.686;5.138;2023-03-13T07:38:17;12.43;;;4.10;;
77061;SDS011;65989;51.686;5.138;2023-03-13T07:40:50;10.32;;;4.15;;
77061;SDS011;65989;51.686;5.138;2023-03-13T07:43:17;10.27;;;3.97;;
77061;SDS011;65989;51.686;5.138;2023-03-13T07:45:49;12.80;;;3.90;;
77061;SDS011;65989;51.686;5.138;2023-03-13T07:48:15;12.73;;;4.07;;
77061;SDS011;65989;51.686;5.138;2023-03-13T07:50:41;10.20;;;3.72;;
77061;SDS011;65989;51.686;5.138;2023-03-13T07:53:09;13.40;;;3.70;;
77061;SDS011;65989;51.686;5.138;2023-03-13T07:55:34;10.70;;;3.90;;
77061;SDS011;65989;51.686;5.138;2023-03-13T07:58:00;11.33;;;3.90;;
77061;SDS011;65989;51.686;5.138;2023-03-13T08:00:25;10.37;;;3.80;;
77061;SDS011;65989;51.686;5.138;2023-03-13T08:02:50;11.47;;;4.17;;
77061;SDS011;65989;51.686;5.138;2023-03-13T08:05:16;14.37;;;4.33;;
77061;SDS011;65989;51.686;5.138;2023-03-13T08:07:43;10.65;;;3.80;;
77061;SDS011;65989;51.686;5.138;2023-03-13T08:10:09;11.23;;;3.70;;
77061;SDS011;65989;51.686;5.138;2023-03-13T08:12:34;12.80;;;3.95;;
77061;SDS011;65989;51.686;5.138;2023-03-13T08:15:00;10.57;;;3.77;;
77061;SDS011;65989;51.686;5.138;2023-03-13T08:17:27;11.45;;;3.97;;
77061;SDS011;65989;51.686;5.138;2023-03-13T08:19:53;14.57;;;4.03;;
77061;SDS011;65989;51.686;5.138;2023-03-13T08:22:19;13.27;;;4.77;;
77061;SDS011;65989;51.686;5.138;2023-03-13T08:24:44;12.17;;;3.80;;
77061;SDS011;65989;51.686;5.138;2023-03-13T08:27:09;16.13;;;3.97;;
77061;SDS011;65989;51.686;5.138;2023-03-13T08:29:35;8.60;;;3.80;;
77061;SDS011;65989;51.686;5.138;2023-03-13T08:32:00;13.77;;;3.70;;
77061;SDS011;65989;51.686;5.138;2023-03-13T08:34:26;13.13;;;4.00;;
77061;SDS011;65989;51.686;5.138;2023-03-13T08:36:51;10.93;;;3.27;;
77061;SDS011;65989;51.686;5.138;2023-03-13T08:39:17;10.20;;;3.13;;
77061;SDS011;65989;51.686;5.138;2023-03-13T08:41:43;7.95;;;3.05;;
77061;SDS011;65989;51.686;5.138;2023-03-13T08:44:10;12.52;;;3.20;;
77061;SDS011;65989;51.686;5.138;2023-03-13T08:46:37;10.10;;;3.23;;
77061;SDS011;65989;51.686;5.138;2023-03-13T08:49:03;10.43;;;3.22;;
77061;SDS011;65989;51.686;5.138;2023-03-13T08:51:30;11.00;;;3.58;;
77061;SDS011;65989;51.686;5.138;2023-03-13T08:53:55;10.90;;;3.30;;
77061;SDS011;65989;51.686;5.138;2023-03-13T08:56:21;9.20;;;2.83;;
77061;SDS011;65989;51.686;5.138;2023-03-13T08:58:59;9.73;;;3.03;;
77061;SDS011;65989;51.686;5.138;2023-03-13T09:01:26;9.25;;;3.15;;
77061;SDS011;65989;51.686;5.138;2023-03-13T09:03:54;8.38;;;2.53;;
77061;SDS011;65989;51.686;5.138;2023-03-13T09:06:20;7.70;;;2.80;;
77061;SDS011;65989;51.686;5.138;2023-03-13T09:08:45;9.38;;;2.45;;
77061;SDS011;65989;51.686;5.138;2023-03-13T09:11:13;11.73;;;2.60;;
77061;SDS011;65989;51.686;5.138;2023-03-13T09:13:44;8.20;;;2.75;;
77061;SDS011;65989;51.686;5.138;2023-03-13T09:16:12;8.40;;;2.55;;
77061;SDS011;65989;51.686;5.138;2023-03-13T09:18:41;7.45;;;2.80;;
77061;SDS011;65989;51.686;5.138;2023-03-13T09:21:08;8.52;;;2.75;;
77061;SDS011;65989;51.686;5.138;2023-03-13T09:23:36;10.33;;;2.80;;
77061;SDS011;65989;51.686;5.138;2023-03-13T09:26:02;7.85;;;2.60;;
77061;SDS011;65989;51.686;5.138;2023-03-13T09:28:28;7.50;;;2.28;;
77061;SDS011;65989;51.686;5.138;2023-03-13T09:30:53;6.37;;;2.60;;
77061;SDS011;65989;51.686;5.138;2023-03-13T09:33:19;6.60;;;2.30;;
77061;SDS011;65989;51.686;5.138;2023-03-13T09:35:49;8.85;;;2.50;;
77061;SDS011;65989;51.686;5.138;2023-03-13T09:38:18;7.53;;;2.63;;
77061;SDS011;65989;51.686;5.138;2023-03-13T09:40:46;9.03;;;2.30;;
77061;SDS011;65989;51.686;5.138;2023-03-13T09:46:08;6.40;;;2.53;;
77061;SDS011;65989;51.686;5.138;2023-03-13T09:48:41;8.05;;;2.75;;
77061;SDS011;65989;51.686;5.138;2023-03-13T09:51:17;8.10;;;2.60;;
77061;SDS011;65989;51.686;5.138;2023-03-13T09:53:51;6.90;;;2.63;;
77061;SDS011;65989;51.686;5.138;2023-03-13T09:56:24;9.90;;;2.80;;
77061;SDS011;65989;51.686;5.138;2023-03-13T09:58:58;11.38;;;2.85;;
77061;SDS011;65989;51.686;5.138;2023-03-13T10:01:30;6.25;;;2.78;;
77061;SDS011;65989;51.686;5.138;2023-03-13T10:06:51;6.97;;;2.50;;
77061;SDS011;65989;51.686;5.138;2023-03-13T10:09:18;10.13;;;2.97;;
77061;SDS011;65989;51.686;5.138;2023-03-13T10:12:30;8.68;;;2.80;;
77061;SDS011;65989;51.686;5.138;2023-03-13T10:17:33;7.53;;;2.72;;
77061;SDS011;65989;51.686;5.138;2023-03-13T10:20:10;6.27;;;2.30;;
77061;SDS011;65989;51.686;5.138;2023-03-13T10:22:44;7.13;;;2.67;;
77061;SDS011;65989;51.686;5.138;2023-03-13T10:25:31;6.35;;;2.42;;
77061;SDS011;65989;51.686;5.138;2023-03-13T10:27:58;8.23;;;2.00;;
77061;SDS011;65989;51.686;5.138;2023-03-13T10:32:52;5.37;;;2.10;;
77061;SDS011;65989;51.686;5.138;2023-03-13T10:35:23;4.88;;;2.10;;
77061;SDS011;65989;51.686;5.138;2023-03-13T10:37:49;6.93;;;2.27;;
77061;SDS011;65989;51.686;5.138;2023-03-13T10:40:26;7.40;;;2.50;;
77061;SDS011;65989;51.686;5.138;2023-03-13T10:42:53;4.20;;;2.13;;
77061;SDS011;65989;51.686;5.138;2023-03-13T10:45:25;6.45;;;2.40;;
77061;SDS011;65989;51.686;5.138;2023-03-13T10:47:55;6.70;;;2.33;;
77061;SDS011;65989;51.686;5.138;2023-03-13T10:50:25;6.50;;;2.33;;
77061;SDS011;65989;51.686;5.138;2023-03-13T10:52:52;5.05;;;2.17;;
77061;SDS011;65989;51.686;5.138;2023-03-13T10:55:22;6.15;;;2.22;;
77061;SDS011;65989;51.686;5.138;2023-03-13T10:57:54;6.35;;;2.28;;
77061;SDS011;65989;51.686;5.138;2023-03-13T11:00:35;5.82;;;2.20;;
77061;SDS011;65989;51.686;5.138;2023-03-13T11:03:06;6.67;;;1.97;;
77061;SDS011;65989;51.686;5.138;2023-03-13T11:05:42;6.18;;;2.50;;
77061;SDS011;65989;51.686;5.138;2023-03-13T11:08:18;6.72;;;2.30;;
77061;SDS011;65989;51.686;5.138;2023-03-13T11:11:01;4.32;;;2.08;;
77061;SDS011;65989;51.686;5.138;2023-03-13T11:13:38;4.28;;;2.22;;
77061;SDS011;65989;51.686;5.138;2023-03-13T11:21:12;5.20;;;2.20;;
77061;SDS011;65989;51.686;5.138;2023-03-13T11:23:49;5.10;;;2.10;;
77061;SDS011;65989;51.686;5.138;2023-03-13T11:29:13;5.53;;;2.57;;
77061;SDS011;65989;51.686;5.138;2023-03-13T11:31:49;6.45;;;2.38;;
77061;SDS011;65989;51.686;5.138;2023-03-13T11:34:21;6.70;;;2.40;;
77061;SDS011;65989;51.686;5.138;2023-03-13T11:37:07;6.55;;;2.50;;
77061;SDS011;65989;51.686;5.138;2023-03-13T11:45:04;5.25;;;2.15;;
77061;SDS011;65989;51.686;5.138;2023-03-13T11:47:43;4.82;;;2.10;;
77061;SDS011;65989;51.686;5.138;2023-03-13T11:50:35;6.13;;;1.90;;
77061;SDS011;65989;51.686;5.138;2023-03-13T12:01:56;8.05;;;1.90;;
77061;SDS011;65989;51.686;5.138;2023-03-13T12:07:05;6.47;;;2.15;;
77061;SDS011;65989;51.686;5.138;2023-03-13T12:09:52;5.70;;;2.00;;
77061;SDS011;65989;51.686;5.138;2023-03-13T12:15:05;8.55;;;2.10;;
77061;SDS011;65989;51.686;5.138;2023-03-13T12:25:53;6.35;;;1.80;;
77061;SDS011;65989;51.686;5.138;2023-03-13T12:31:25;6.47;;;2.10;;
77061;SDS011;65989;51.686;5.138;2023-03-13T12:34:02;6.72;;;1.80;;
77061;SDS011;65989;51.686;5.138;2023-03-13T12:36:47;7.23;;;1.63;;
77061;SDS011;65989;51.686;5.138;2023-03-13T12:42:18;4.82;;;1.80;;
77061;SDS011;65989;51.686;5.138;2023-03-13T12:44:59;9.38;;;1.80;;
77061;SDS011;65989;51.686;5.138;2023-03-13T12:47:32;8.25;;;1.85;;
77061;SDS011;65989;51.686;5.138;2023-03-13T12:50:03;5.60;;;1.70;;
77061;SDS011;65989;51.686;5.138;2023-03-13T12:55:46;10.68;;;2.40;;
77061;SDS011;65989;51.686;5.138;2023-03-13T12:58:37;6.18;;;1.90;;
77061;SDS011;65989;51.686;5.138;2023-03-13T13:01:09;8.38;;;2.05;;
77061;SDS011;65989;51.686;5.138;2023-03-13T13:04:04;6.83;;;1.87;;
77061;SDS011;65989;51.686;5.138;2023-03-13T13:09:58;7.03;;;1.80;;
77061;SDS011;65989;51.686;5.138;2023-03-13T13:12:24;8.30;;;1.95;;
77061;SDS011;65989;51.686;5.138;2023-03-13T13:17:38;8.90;;;1.90;;
77061;SDS011;65989;51.686;5.138;2023-03-13T13:23:21;9.25;;;2.00;;
77061;SDS011;65989;51.686;5.138;2023-03-13T13:25:53;7.07;;;2.03;;
77061;SDS011;65989;51.686;5.138;2023-03-13T13:28:24;5.53;;;2.30;;
77061;SDS011;65989;51.686;5.138;2023-03-13T13:30:56;9.70;;;2.35;;
77061;SDS011;65989;51.686;5.138;2023-03-13T13:38:45;7.15;;;2.20;;
77061;SDS011;65989;51.686;5.138;2023-03-13T13:51:30;9.70;;;2.08;;
77061;SDS011;65989;51.686;5.138;2023-03-13T13:53:57;9.82;;;2.25;;
77061;SDS011;65989;51.686;5.138;2023-03-13T14:01:23;8.40;;;2.50;;
77061;SDS011;65989;51.686;5.138;2023-03-13T14:03:50;6.53;;;2.10;;
77061;SDS011;65989;51.686;5.138;2023-03-13T14:06:27;10.73;;;2.40;;
77061;SDS011;65989;51.686;5.138;2023-03-13T14:09:10;12.05;;;2.22;;
77061;SDS011;65989;51.686;5.138;2023-03-13T14:11:45;7.50;;;2.50;;
77061;SDS011;65989;51.686;5.138;2023-03-13T14:14:17;13.27;;;2.92;;
77061;SDS011;65989;51.686;5.138;2023-03-13T14:16:45;9.53;;;2.37;;
77061;SDS011;65989;51.686;5.138;2023-03-13T14:19:22;9.98;;;2.30;;
77061;SDS011;65989;51.686;5.138;2023-03-13T14:22:07;13.23;;;3.28;;
77061;SDS011;65989;51.686;5.138;2023-03-13T14:24:35;12.77;;;2.65;;
77061;SDS011;65989;51.686;5.138;2023-03-13T14:27:01;11.35;;;2.50;;
77061;SDS011;65989;51.686;5.138;2023-03-13T14:29:38;14.23;;;3.00;;
77061;SDS011;65989;51.686;5.138;2023-03-13T14:32:03;10.43;;;3.00;;
77061;SDS011;65989;51.686;5.138;2023-03-13T14:34:30;15.47;;;3.17;;
77061;SDS011;65989;51.686;5.138;2023-03-13T14:36:56;12.80;;;2.65;;
77061;SDS011;65989;51.686;5.138;2023-03-13T14:39:37;17.08;;;2.72;;
77061;SDS011;65989;51.686;5.138;2023-03-13T14:44:36;14.37;;;2.80;;
77061;SDS011;65989;51.686;5.138;2023-03-13T14:49:40;12.85;;;2.75;;
77061;SDS011;65989;51.686;5.138;2023-03-13T14:52:18;14.68;;;3.15;;
77061;SDS011;65989;51.686;5.138;2023-03-13T14:54:52;10.73;;;2.60;;
77061;SDS011;65989;51.686;5.138;2023-03-13T14:57:23;13.40;;;3.00;;
77061;SDS011;65989;51.686;5.138;2023-03-13T14:59:51;13.70;;;2.72;;
77061;SDS011;65989;51.686;5.138;2023-03-13T15:04:49;13.57;;;2.88;;
77061;SDS011;65989;51.686;5.138;2023-03-13T15:07:14;11.82;;;3.25;;
77061;SDS011;65989;51.686;5.138;2023-03-13T15:09:41;10.43;;;2.57;;
77061;SDS011;65989;51.686;5.138;2023-03-13T15:12:13;11.57;;;2.50;;
77061;SDS011;65989;51.686;5.138;2023-03-13T15:14:43;11.43;;;2.50;;
77061;SDS011;65989;51.686;5.138;2023-03-13T15:17:17;10.52;;;2.85;;
77061;SDS011;65989;51.686;5.138;2023-03-13T15:19:51;11.80;;;2.60;;
77061;SDS011;65989;51.686;5.138;2023-03-13T15:22:20;6.73;;;2.63;;
77061;SDS011;65989;51.686;5.138;2023-03-13T15:24:50;7.95;;;2.30;;
77061;SDS011;65989;51.686;5.138;2023-03-13T15:27:19;11.03;;;2.83;;
77061;SDS011;65989;51.686;5.138;2023-03-13T15:29:46;11.23;;;2.72;;
77061;SDS011;65989;51.686;5.138;2023-03-13T15:34:48;10.18;;;2.53;;
77061;SDS011;65989;51.686;5.138;2023-03-13T15:37:15;12.63;;;2.43;;
77061;SDS011;65989;51.686;5.138;2023-03-13T15:39:40;11.73;;;2.38;;
77061;SDS011;65989;51.686;5.138;2023-03-13T15:42:06;10.73;;;2.60;;
77061;SDS011;65989;51.686;5.138;2023-03-13T15:44:31;14.33;;;2.83;;
77061;SDS011;65989;51.686;5.138;2023-03-13T15:46:57;14.45;;;3.05;;
77061;SDS011;65989;51.686;5.138;2023-03-13T15:49:22;11.77;;;3.13;;
77061;SDS011;65989;51.686;5.138;2023-03-13T15:51:47;13.10;;;3.00;;
77061;SDS011;65989;51.686;5.138;2023-03-13T15:54:13;15.67;;;2.97;;
77061;SDS011;65989;51.686;5.138;2023-03-13T15:56:38;14.27;;;2.97;;
77061;SDS011;65989;51.686;5.138;2023-03-13T15:59:08;13.90;;;3.05;;
77061;SDS011;65989;51.686;5.138;2023-03-13T16:01:37;14.75;;;3.58;;
77061;SDS011;65989;51.686;5.138;2023-03-13T16:04:03;14.07;;;3.10;;
77061;SDS011;65989;51.686;5.138;2023-03-13T16:06:29;15.15;;;2.95;;
77061;SDS011;65989;51.686;5.138;2023-03-13T16:09:01;18.25;;;3.80;;
77061;SDS011;65989;51.686;5.138;2023-03-13T16:11:29;15.73;;;3.13;;
77061;SDS011;65989;51.686;5.138;2023-03-13T16:13:55;13.40;;;3.00;;
77061;SDS011;65989;51.686;5.138;2023-03-13T16:18:49;16.35;;;3.22;;
77061;SDS011;65989;51.686;5.138;2023-03-13T16:21:33;18.48;;;3.65;;
77061;SDS011;65989;51.686;5.138;2023-03-13T16:24:00;19.17;;;3.95;;
77061;SDS011;65989;51.686;5.138;2023-03-13T16:26:28;16.60;;;3.30;;
77061;SDS011;65989;51.686;5.138;2023-03-13T16:28:55;21.13;;;3.88;;
77061;SDS011;65989;51.686;5.138;2023-03-13T16:31:23;15.15;;;3.55;;
77061;SDS011;65989;51.686;5.138;2023-03-13T16:33:51;16.77;;;3.78;;